Learmonth, Australia
Current Conditions -  °F | °C
As of 11:30 PM on Saturday 20 Dec 2014 (Local Time) from YPLM Reporting Station
Clear Clear  
Wind Chill: 72°   Ceiling: Unl
Heat Index: 72°   Visibility: 6mi
Dew Point: 64°   Wind: 17mph
Humidity: 78%   Direction: 210°SSW
Pressure: 29.8"   Gusts: NA
Location:  22.23°S, 114.09°E
Report Text: YPLM 201530Z AUTO 21015KT 9999 // NCD 22/18 Q1009
Loading
Personal Weather Stations






























Interactive Weather Map New forecast layout! Learn more

10-Day Weather Forecast

Advertisements
Track Severe Weather on mobile